createdAt,value
2023-04-28T00:00:53.197Z,12.93
2023-04-28T00:03:20.477Z,10.18
2023-04-28T00:05:49.596Z,11.82
2023-04-28T00:08:17.072Z,12.27
2023-04-28T00:10:44.108Z,11.50
2023-04-28T00:13:11.733Z,11.18
2023-04-28T00:15:38.797Z,17.75
2023-04-28T00:18:06.110Z,16.50
2023-04-28T00:20:33.283Z,12.05
2023-04-28T00:23:00.452Z,13.68
2023-04-28T00:25:27.577Z,15.43
2023-04-28T00:27:54.825Z,11.32
2023-04-28T00:30:22.257Z,22.13
2023-04-28T00:32:49.265Z,15.63
2023-04-28T00:35:16.366Z,10.88
2023-04-28T00:37:43.410Z,8.27
2023-04-28T00:40:11.259Z,11.95
2023-04-28T00:42:38.604Z,12.65
2023-04-28T00:45:07.322Z,12.80
2023-04-28T00:47:35.147Z,10.18
2023-04-28T00:50:03.608Z,12.70
2023-04-28T00:52:32.050Z,14.43
2023-04-28T00:54:59.406Z,12.13
2023-04-28T00:57:27.160Z,13.43
2023-04-28T00:59:57.134Z,19.35
2023-04-28T01:02:24.699Z,12.25
2023-04-28T01:04:52.892Z,10.68
2023-04-28T01:07:19.960Z,13.60
2023-04-28T01:09:48.029Z,17.65
2023-04-28T01:12:15.569Z,10.43
2023-04-28T01:14:42.760Z,11.25
2023-04-28T01:17:10.469Z,17.08
2023-04-28T01:19:37.571Z,14.27
2023-04-28T01:22:04.926Z,16.10
2023-04-28T01:24:32.096Z,17.67
2023-04-28T01:26:59.129Z,15.68
2023-04-28T01:29:26.565Z,17.85
2023-04-28T01:31:53.661Z,13.18
2023-04-28T01:34:20.838Z,13.15
2023-04-28T01:36:48.034Z,12.95
2023-04-28T01:39:15.167Z,12.73
2023-04-28T01:41:42.331Z,14.43
2023-04-28T01:44:09.446Z,16.10
2023-04-28T01:46:36.851Z,13.68
2023-04-28T01:49:04.122Z,9.52
2023-04-28T01:51:31.332Z,18.58
2023-04-28T01:53:58.425Z,14.43
2023-04-28T01:56:25.540Z,11.45
2023-04-28T01:58:52.622Z,17.10
2023-04-28T02:01:19.714Z,15.55
2023-04-28T02:03:48.408Z,15.60
2023-04-28T02:06:15.598Z,18.25
2023-04-28T02:08:42.724Z,12.15
2023-04-28T02:11:09.800Z,13.57
2023-04-28T02:13:36.926Z,18.73
2023-04-28T02:16:04.171Z,12.68
2023-04-28T02:18:31.287Z,11.25
2023-04-28T02:20:58.339Z,11.88
2023-04-28T02:23:25.429Z,9.77
2023-04-28T02:26:01.681Z,18.15
2023-04-28T02:28:29.333Z,11.35
2023-04-28T02:31:11.510Z,16.67
2023-04-28T02:33:39.062Z,10.70
2023-04-28T02:36:07.038Z,12.77
2023-04-28T02:38:34.604Z,15.65
2023-04-28T02:41:07.511Z,17.02
2023-04-28T02:43:36.377Z,14.73
2023-04-28T02:46:04.946Z,12.68
2023-04-28T02:48:33.436Z,10.07
2023-04-28T02:51:00.591Z,11.25
2023-04-28T02:53:28.083Z,13.05
2023-04-28T02:55:55.411Z,12.85
2023-04-28T02:58:22.515Z,14.18
2023-04-28T03:00:49.645Z,19.00
2023-04-28T03:03:16.914Z,13.27
2023-04-28T03:05:44.169Z,15.05
2023-04-28T03:08:11.315Z,15.30
2023-04-28T03:10:38.454Z,19.25
2023-04-28T03:13:06.258Z,15.93
2023-04-28T03:15:33.449Z,11.25
2023-04-28T03:18:01.270Z,15.25
2023-04-28T03:20:28.396Z,12.65
2023-04-28T03:22:55.501Z,17.30
2023-04-28T03:25:22.552Z,13.23
2023-04-28T03:27:49.744Z,12.65
2023-04-28T03:30:16.894Z,18.60
2023-04-28T03:32:43.993Z,15.73
2023-04-28T03:35:11.210Z,19.85
2023-04-28T03:37:38.758Z,12.77
2023-04-28T03:40:06.889Z,12.88
2023-04-28T03:42:34.082Z,15.80
2023-04-28T03:45:01.327Z,17.95
2023-04-28T03:47:28.580Z,16.42
2023-04-28T03:49:55.765Z,18.58
2023-04-28T03:52:23.117Z,14.98
2023-04-28T03:54:50.245Z,14.32
2023-04-28T03:57:17.399Z,14.77
2023-04-28T03:59:44.572Z,18.20
2023-04-28T04:02:11.650Z,14.50
2023-04-28T04:04:38.848Z,18.55
2023-04-28T04:07:06.614Z,17.52
2023-04-28T04:09:33.766Z,15.85
2023-04-28T04:12:01.365Z,13.20
2023-04-28T04:14:28.405Z,17.60
2023-04-28T04:16:55.638Z,12.98
2023-04-28T04:19:24.128Z,11.98
2023-04-28T04:21:51.360Z,14.63
2023-04-28T04:24:18.794Z,15.43
2023-04-28T04:26:46.105Z,14.98
2023-04-28T04:29:13.170Z,15.23
2023-04-28T04:31:41.033Z,17.42
2023-04-28T04:34:08.152Z,18.95
2023-04-28T04:36:35.195Z,20.00
2023-04-28T04:39:02.613Z,15.73
2023-04-28T04:41:29.743Z,20.85
2023-04-28T04:43:57.016Z,12.63
2023-04-28T04:46:24.288Z,14.90
2023-04-28T04:48:51.408Z,13.07
2023-04-28T04:51:18.477Z,19.92
2023-04-28T04:53:45.712Z,18.67
2023-04-28T04:56:13.232Z,18.23
2023-04-28T04:58:42.946Z,20.95
2023-04-28T05:01:10.392Z,21.45
2023-04-28T05:03:37.598Z,16.48
2023-04-28T05:06:04.865Z,23.42
2023-04-28T05:08:32.099Z,18.60
2023-04-28T05:10:59.139Z,15.00
2023-04-28T05:13:26.379Z,13.60
2023-04-28T05:15:53.541Z,15.00
2023-04-28T05:18:20.745Z,17.85
2023-04-28T05:20:48.515Z,20.50
2023-04-28T05:23:15.601Z,14.65
2023-04-28T05:25:42.811Z,15.23
2023-04-28T05:28:12.805Z,18.58
2023-04-28T05:30:39.881Z,17.02
2023-04-28T05:33:07.080Z,23.33
2023-04-28T05:35:34.300Z,22.17
2023-04-28T05:38:01.747Z,18.55
2023-04-28T05:40:31.618Z,15.10
2023-04-28T05:42:58.712Z,18.35
2023-04-28T05:45:26.035Z,20.25
2023-04-28T05:47:53.143Z,20.58
2023-04-28T05:50:20.935Z,11.85
2023-04-28T05:52:47.994Z,13.23
2023-04-28T05:55:15.292Z,15.50
2023-04-28T05:57:52.537Z,14.63
2023-04-28T06:00:21.821Z,24.95
2023-04-28T06:02:49.048Z,16.27
2023-04-28T06:05:16.690Z,21.50
2023-04-28T06:07:44.324Z,35.30
2023-04-28T06:10:12.020Z,16.70
2023-04-28T06:12:39.536Z,14.07
2023-04-28T06:15:07.299Z,13.57
2023-04-28T06:17:34.652Z,15.48
2023-04-28T06:20:01.877Z,13.75
2023-04-28T06:22:28.981Z,15.10
2023-04-28T06:24:56.161Z,13.95
2023-04-28T06:27:23.337Z,14.93
2023-04-28T06:29:50.428Z,11.52
2023-04-28T06:32:17.550Z,11.10
2023-04-28T06:34:44.634Z,18.63
2023-04-28T06:37:11.649Z,12.43
2023-04-28T06:39:38.796Z,9.40
2023-04-28T06:42:06.386Z,10.75
2023-04-28T06:44:34.327Z,20.63
2023-04-28T06:47:03.240Z,8.52
2023-04-28T06:49:30.295Z,14.10
2023-04-28T06:51:57.327Z,14.27
2023-04-28T06:54:24.448Z,12.30
2023-04-28T06:56:51.512Z,15.52
2023-04-28T06:59:18.575Z,13.57
2023-04-28T07:01:45.913Z,11.63
2023-04-28T07:04:13.154Z,12.25
2023-04-28T07:06:40.633Z,19.27
2023-04-28T07:09:07.762Z,12.98
2023-04-28T07:11:35.003Z,14.05
2023-04-28T07:14:02.054Z,10.65
2023-04-28T07:16:29.193Z,10.50
2023-04-28T07:18:56.607Z,9.05
2023-04-28T07:21:23.621Z,10.25
2023-04-28T07:23:50.959Z,8.40
2023-04-28T07:26:18.048Z,12.98
2023-04-28T07:28:45.268Z,9.45
2023-04-28T07:31:12.319Z,10.73
2023-04-28T07:33:39.511Z,21.33
2023-04-28T07:36:07.323Z,13.50
2023-04-28T07:38:35.983Z,10.48
2023-04-28T07:41:04.294Z,12.75
2023-04-28T07:43:32.238Z,9.73
2023-04-28T07:45:59.347Z,12.52
2023-04-28T07:48:27.404Z,8.68
2023-04-28T07:50:54.511Z,17.88
2023-04-28T07:53:21.672Z,11.43
2023-04-28T07:55:48.738Z,11.15
2023-04-28T07:58:16.005Z,12.40
2023-04-28T08:00:43.119Z,10.57
2023-04-28T08:03:11.618Z,11.65
2023-04-28T08:05:40.013Z,20.63
2023-04-28T08:08:07.200Z,8.95
2023-04-28T08:10:34.626Z,16.23
2023-04-28T08:13:01.780Z,13.40
2023-04-28T08:15:28.963Z,9.63
2023-04-28T08:17:56.143Z,7.82
2023-04-28T08:20:24.674Z,7.55
2023-04-28T08:22:52.037Z,10.40
2023-04-28T08:25:19.108Z,14.32
2023-04-28T08:27:46.292Z,7.10
2023-04-28T08:30:13.498Z,7.93
2023-04-28T08:32:40.687Z,10.18
2023-04-28T08:35:08.750Z,5.07
2023-04-28T08:37:36.240Z,9.07
2023-04-28T08:40:09.514Z,13.63
2023-04-28T08:42:37.666Z,11.48
2023-04-28T08:45:06.103Z,13.02
2023-04-28T08:47:40.560Z,13.10
2023-04-28T08:50:09.056Z,5.20
2023-04-28T08:52:36.680Z,11.52
2023-04-28T08:55:09.648Z,14.57
2023-04-28T08:57:51.786Z,9.90
2023-04-28T09:00:19.182Z,7.95
2023-04-28T09:02:46.452Z,7.22
2023-04-28T09:05:14.902Z,12.35
2023-04-28T09:07:47.006Z,9.27
2023-04-28T09:10:23.313Z,6.95
2023-04-28T09:12:55.282Z,10.55
2023-04-28T09:15:34.439Z,6.43
2023-04-28T09:18:08.226Z,7.18
2023-04-28T09:20:36.660Z,8.10
2023-04-28T09:23:18.236Z,6.97
2023-04-28T09:26:08.005Z,11.30
2023-04-28T09:28:36.516Z,8.57
2023-04-28T09:31:04.232Z,9.57
2023-04-28T09:33:31.620Z,10.98
2023-04-28T09:35:58.904Z,6.57
2023-04-28T09:38:26.291Z,7.97
2023-04-28T09:40:54.686Z,6.10
2023-04-28T09:43:28.965Z,8.57
2023-04-28T09:45:58.921Z,10.38
2023-04-28T09:48:30.920Z,14.70
2023-04-28T09:51:00.578Z,8.27
2023-04-28T09:53:28.611Z,5.25
2023-04-28T09:56:00.113Z,6.03
2023-04-28T09:58:28.900Z,8.32
2023-04-28T10:00:58.888Z,7.53
2023-04-28T10:03:31.351Z,9.13
2023-04-28T10:05:59.842Z,5.85
2023-04-28T10:08:28.037Z,8.40
2023-04-28T10:10:57.896Z,12.55
2023-04-28T10:13:25.702Z,7.45
2023-04-28T10:15:55.458Z,8.70
2023-04-28T10:18:25.847Z,15.40
2023-04-28T10:21:03.210Z,14.20
2023-04-28T10:23:37.803Z,6.07
2023-04-28T10:26:11.690Z,8.15
2023-04-28T10:28:46.837Z,8.10
2023-04-28T10:31:16.834Z,9.60
2023-04-28T10:33:44.747Z,9.98
2023-04-28T10:36:24.121Z,9.10
2023-04-28T10:39:14.390Z,8.25
2023-04-28T10:41:41.844Z,6.03
2023-04-28T10:44:30.660Z,8.18
2023-04-28T10:47:09.646Z,10.18
2023-04-28T10:49:56.358Z,5.30
2023-04-28T10:52:40.999Z,12.25
2023-04-28T10:55:27.577Z,4.53
2023-04-28T10:58:16.195Z,14.52
2023-04-28T11:00:51.572Z,6.70
2023-04-28T11:03:51.292Z,3.70
2023-04-28T11:06:28.936Z,14.48
2023-04-28T11:09:00.430Z,7.57
2023-04-28T11:11:31.335Z,12.55
2023-04-28T11:14:16.955Z,9.88
2023-04-28T11:16:59.984Z,4.85
2023-04-28T11:19:30.000Z,12.85
2023-04-28T11:22:00.395Z,5.22
2023-04-28T11:24:29.702Z,10.63
2023-04-28T11:27:00.630Z,4.78
2023-04-28T11:29:38.400Z,6.47
2023-04-28T11:32:10.477Z,6.22
2023-04-28T11:34:38.142Z,5.53
2023-04-28T11:37:08.351Z,6.03
2023-04-28T11:39:35.897Z,5.43
2023-04-28T11:42:11.337Z,7.90
2023-04-28T11:47:07.231Z,11.20
2023-04-28T11:49:47.711Z,5.85
2023-04-28T11:52:14.875Z,9.95
2023-04-28T11:54:43.736Z,6.20
2023-04-28T11:57:22.916Z,11.30
2023-04-28T11:59:51.093Z,8.15
2023-04-28T12:02:31.997Z,10.00
2023-04-28T12:05:07.877Z,9.93
2023-04-28T12:07:45.699Z,7.10
2023-04-28T12:10:17.199Z,4.85
2023-04-28T12:12:51.839Z,4.05
2023-04-28T12:15:22.447Z,4.18
2023-04-28T12:17:51.131Z,3.47
2023-04-28T12:20:38.869Z,6.05
2023-04-28T12:23:07.500Z,11.35
2023-04-28T12:25:43.721Z,6.00
2023-04-28T12:28:11.252Z,7.95
2023-04-28T12:30:42.685Z,13.02
2023-04-28T12:33:29.008Z,8.60
2023-04-28T12:35:59.855Z,6.25
2023-04-28T12:38:28.504Z,6.95
2023-04-28T12:40:56.356Z,2.72
2023-04-28T12:43:24.256Z,4.43
2023-04-28T12:45:56.602Z,2.70
2023-04-28T12:48:25.076Z,6.68
2023-04-28T12:50:52.546Z,4.80
2023-04-28T12:53:19.797Z,5.72
2023-04-28T12:55:46.916Z,5.47
2023-04-28T12:58:14.013Z,4.50
2023-04-28T13:00:41.961Z,9.32
2023-04-28T13:03:09.387Z,6.85
2023-04-28T13:05:36.616Z,3.70
2023-04-28T13:08:04.855Z,9.82
2023-04-28T13:10:32.132Z,5.75
2023-04-28T13:12:59.198Z,6.00
2023-04-28T13:15:27.271Z,5.65
2023-04-28T13:17:54.480Z,4.57
2023-04-28T13:20:21.570Z,5.35
2023-04-28T13:22:48.640Z,5.07
2023-04-28T13:25:15.861Z,12.20
2023-04-28T13:27:43.492Z,10.23
2023-04-28T13:30:11.945Z,7.82
2023-04-28T13:32:39.191Z,6.30
2023-04-28T13:35:08.295Z,4.03
2023-04-28T13:37:37.973Z,3.13
2023-04-28T13:40:06.260Z,6.68
2023-04-28T13:42:33.332Z,7.65
2023-04-28T13:45:00.443Z,4.47
2023-04-28T13:47:28.349Z,5.95
2023-04-28T13:49:55.601Z,4.63
2023-04-28T13:52:23.304Z,8.20
2023-04-28T13:54:50.457Z,3.92
2023-04-28T13:57:17.582Z,5.82
2023-04-28T13:59:45.447Z,3.63
2023-04-28T14:02:15.459Z,8.40
2023-04-28T14:04:48.709Z,6.38
2023-04-28T14:07:16.860Z,12.65
2023-04-28T14:09:44.695Z,12.45
2023-04-28T14:12:13.803Z,7.20
2023-04-28T14:14:41.137Z,6.93
2023-04-28T14:17:09.043Z,5.32
2023-04-28T14:19:36.640Z,5.35
2023-04-28T14:22:03.693Z,8.27
2023-04-28T14:24:30.756Z,5.82
2023-04-28T14:26:57.868Z,4.75
2023-04-28T14:29:24.995Z,10.35
2023-04-28T14:31:52.214Z,8.40
2023-04-28T14:34:19.246Z,4.57
2023-04-28T14:36:47.915Z,5.78
2023-04-28T14:39:15.142Z,3.30
2023-04-28T14:41:42.239Z,7.30
2023-04-28T14:44:12.130Z,5.07
2023-04-28T14:46:39.248Z,5.65
2023-04-28T14:49:06.702Z,11.43
2023-04-28T14:51:33.830Z,5.93
2023-04-28T14:54:01.038Z,5.53
2023-04-28T14:56:28.122Z,7.15
2023-04-28T14:58:55.203Z,5.72
2023-04-28T15:01:22.350Z,5.82
2023-04-28T15:03:49.854Z,5.03
2023-04-28T15:06:17.068Z,6.72
2023-04-28T15:08:44.192Z,11.60
2023-04-28T15:11:11.830Z,9.93
2023-04-28T15:13:40.961Z,9.23
2023-04-28T15:16:10.189Z,15.40
2023-04-28T15:18:37.649Z,9.02
2023-04-28T15:21:05.011Z,6.32
2023-04-28T15:23:32.093Z,8.57
2023-04-28T15:25:59.196Z,10.88
2023-04-28T15:28:27.727Z,10.15
2023-04-28T15:30:55.373Z,7.45
2023-04-28T15:33:22.744Z,9.27
2023-04-28T15:35:50.121Z,12.65
2023-04-28T15:38:17.684Z,7.70
2023-04-28T15:40:45.922Z,10.40
2023-04-28T15:43:13.417Z,11.57
2023-04-28T15:45:40.550Z,7.03
2023-04-28T15:48:09.151Z,9.65
2023-04-28T15:50:37.501Z,12.07
2023-04-28T15:53:04.583Z,9.52
2023-04-28T15:55:31.980Z,8.65
2023-04-28T15:57:59.269Z,10.88
2023-04-28T16:00:26.419Z,11.90
2023-04-28T16:02:53.655Z,8.15
2023-04-28T16:05:20.987Z,9.63
2023-04-28T16:07:49.871Z,9.93
2023-04-28T16:10:17.299Z,10.48
2023-04-28T16:12:44.745Z,7.38
2023-04-28T16:15:13.421Z,9.60
2023-04-28T16:17:41.571Z,10.80
2023-04-28T16:20:10.291Z,6.72
2023-04-28T16:22:40.873Z,13.00
2023-04-28T16:25:09.363Z,9.13
2023-04-28T16:27:37.384Z,9.48
2023-04-28T16:30:08.274Z,6.63
2023-04-28T16:32:38.759Z,8.48
2023-04-28T16:35:07.763Z,11.13
2023-04-28T16:37:36.447Z,7.25
2023-04-28T16:40:03.770Z,8.00
2023-04-28T16:42:31.212Z,8.55
2023-04-28T16:44:59.798Z,10.57
2023-04-28T16:47:27.156Z,11.27
2023-04-28T16:49:54.287Z,10.48
2023-04-28T16:52:21.570Z,10.18
2023-04-28T16:54:48.644Z,13.68
2023-04-28T16:57:15.747Z,14.40
2023-04-28T16:59:43.009Z,13.10
2023-04-28T17:02:10.174Z,13.25
2023-04-28T17:04:37.913Z,11.70
2023-04-28T17:07:05.586Z,11.82
2023-04-28T17:09:33.448Z,14.25
2023-04-28T17:12:03.935Z,12.52
2023-04-28T17:14:31.250Z,10.48
2023-04-28T17:16:58.488Z,35.67
2023-04-28T17:19:26.065Z,34.22
2023-04-28T17:21:55.435Z,34.50
2023-04-28T17:24:23.606Z,25.40
2023-04-28T17:26:51.181Z,20.38
2023-04-28T17:29:18.560Z,20.38
2023-04-28T17:31:46.192Z,15.23
2023-04-28T17:34:13.450Z,14.70
2023-04-28T17:36:41.284Z,19.88
2023-04-28T17:39:09.437Z,14.70
2023-04-28T17:41:36.780Z,16.60
2023-04-28T17:44:03.983Z,18.92
2023-04-28T17:46:31.248Z,17.63
2023-04-28T17:49:00.028Z,18.50
2023-04-28T17:51:28.028Z,17.65
2023-04-28T17:53:56.839Z,19.25
2023-04-28T17:56:24.207Z,20.20
2023-04-28T17:58:51.834Z,17.83
2023-04-28T18:01:19.058Z,17.08
2023-04-28T18:03:46.326Z,18.33
2023-04-28T18:06:14.223Z,16.33
2023-04-28T18:08:41.500Z,15.35
2023-04-28T18:11:10.314Z,14.73
2023-04-28T18:13:38.039Z,14.52
2023-04-28T18:16:05.936Z,15.18
2023-04-28T18:18:35.308Z,18.65
2023-04-28T18:21:03.433Z,16.88
2023-04-28T18:23:31.206Z,17.30
2023-04-28T18:25:58.414Z,17.88
2023-04-28T18:28:26.631Z,21.20
2023-04-28T18:30:54.263Z,17.30
2023-04-28T18:33:23.539Z,16.70
2023-04-28T18:36:05.749Z,16.20
2023-04-28T18:38:37.274Z,19.00
2023-04-28T18:41:16.974Z,20.00
2023-04-28T18:43:45.434Z,18.73
2023-04-28T18:46:14.204Z,22.65
2023-04-28T18:48:42.578Z,20.08
2023-04-28T18:51:10.023Z,17.27
2023-04-28T18:53:37.643Z,20.17
2023-04-28T18:56:07.074Z,19.67
2023-04-28T18:58:37.424Z,22.83
2023-04-28T19:01:08.937Z,21.50
2023-04-28T19:03:36.588Z,22.45
2023-04-28T19:06:05.989Z,23.50
2023-04-28T19:08:34.217Z,26.30
2023-04-28T19:11:02.067Z,23.35
2023-04-28T19:13:29.711Z,19.77
2023-04-28T19:15:57.413Z,21.77
2023-04-28T19:18:25.763Z,22.90
2023-04-28T19:21:04.547Z,23.45
2023-04-28T19:23:33.339Z,22.25
2023-04-28T19:26:02.310Z,21.10
2023-04-28T19:28:31.446Z,20.95
2023-04-28T19:30:59.887Z,23.58
2023-04-28T19:33:28.632Z,18.80
2023-04-28T19:35:58.479Z,20.23
2023-04-28T19:38:27.000Z,21.80
2023-04-28T19:41:01.355Z,20.52
2023-04-28T19:43:29.686Z,23.88
2023-04-28T19:45:57.854Z,24.83
2023-04-28T19:48:26.272Z,20.25
2023-04-28T19:50:55.713Z,22.23
2023-04-28T19:53:23.886Z,20.45
2023-04-28T19:55:51.803Z,22.67
2023-04-28T19:58:19.670Z,26.45
2023-04-28T20:00:50.459Z,21.08
2023-04-28T20:03:18.799Z,23.88
2023-04-28T20:05:47.684Z,27.55
2023-04-28T20:08:16.223Z,23.27
2023-04-28T20:10:43.872Z,23.83
2023-04-28T20:13:11.314Z,21.08
2023-04-28T20:15:39.272Z,26.45
2023-04-28T20:18:07.161Z,22.48
2023-04-28T20:20:37.007Z,19.63
2023-04-28T20:23:04.623Z,20.00
2023-04-28T20:25:35.975Z,19.75
2023-04-28T20:28:03.723Z,20.33
2023-04-28T20:30:31.126Z,20.98
2023-04-28T20:32:58.495Z,21.10
2023-04-28T20:35:25.713Z,25.40
2023-04-28T20:37:53.352Z,20.52
2023-04-28T20:40:20.656Z,18.52
2023-04-28T20:42:47.821Z,25.70
2023-04-28T20:45:15.210Z,21.15
2023-04-28T20:47:42.505Z,22.48
2023-04-28T20:50:11.566Z,21.60
2023-04-28T20:52:39.188Z,22.67
2023-04-28T20:55:09.788Z,23.02
2023-04-28T20:57:36.961Z,24.70
2023-04-28T21:00:05.268Z,20.73
2023-04-28T21:02:32.812Z,19.98
2023-04-28T21:05:00.120Z,20.88
2023-04-28T21:07:27.190Z,22.10
2023-04-28T21:09:54.282Z,19.73
2023-04-28T21:12:21.390Z,21.48
2023-04-28T21:14:48.492Z,18.63
2023-04-28T21:17:15.585Z,23.88
2023-04-28T21:19:42.966Z,19.67
2023-04-28T21:22:10.083Z,24.65
2023-04-28T21:24:37.284Z,23.10
2023-04-28T21:27:04.902Z,23.90
2023-04-28T21:29:32.065Z,20.52
2023-04-28T21:31:59.194Z,23.88
2023-04-28T21:34:26.736Z,20.27
2023-04-28T21:36:54.930Z,22.73
2023-04-28T21:39:22.808Z,20.23
2023-04-28T21:41:49.917Z,18.88
2023-04-28T21:44:17.221Z,20.88
2023-04-28T21:46:44.309Z,22.10
2023-04-28T21:49:11.520Z,24.08
2023-04-28T21:51:42.185Z,25.88
2023-04-28T21:54:09.514Z,20.95
2023-04-28T21:56:36.841Z,19.58
2023-04-28T21:59:04.219Z,21.73
2023-04-28T22:01:32.174Z,23.98
2023-04-28T22:04:01.592Z,27.10
2023-04-28T22:06:29.367Z,25.73
2023-04-28T22:08:57.220Z,28.35
2023-04-28T22:11:25.425Z,24.77
2023-04-28T22:13:52.559Z,23.35
2023-04-28T22:16:19.747Z,24.17
2023-04-28T22:18:47.065Z,23.00
2023-04-28T22:21:14.530Z,26.98
2023-04-28T22:23:41.688Z,23.35
2023-04-28T22:26:08.770Z,28.55
2023-04-28T22:28:35.900Z,31.20
2023-04-28T22:31:03.391Z,32.42
2023-04-28T22:33:30.509Z,27.95
2023-04-28T22:35:57.687Z,32.20
2023-04-28T22:38:25.073Z,24.83
2023-04-28T22:40:52.721Z,26.73
2023-04-28T22:43:19.778Z,23.70
2023-04-28T22:45:46.881Z,27.35
2023-04-28T22:48:14.386Z,26.48
2023-04-28T22:50:41.551Z,25.10
2023-04-28T22:53:09.435Z,25.10
2023-04-28T22:55:36.785Z,27.40
2023-04-28T22:58:03.930Z,23.60
2023-04-28T23:00:30.998Z,26.55
2023-04-28T23:02:58.193Z,24.58
2023-04-28T23:05:25.409Z,27.23
2023-04-28T23:07:52.536Z,25.08
2023-04-28T23:10:19.684Z,26.38
2023-04-28T23:12:46.854Z,31.30
2023-04-28T23:15:13.990Z,26.40
2023-04-28T23:17:42.018Z,28.73
2023-04-28T23:20:09.864Z,25.17
2023-04-28T23:22:36.934Z,23.55
2023-04-28T23:25:04.503Z,27.40
2023-04-28T23:27:32.186Z,27.50
2023-04-28T23:29:59.332Z,28.30
2023-04-28T23:32:26.846Z,26.10
2023-04-28T23:34:53.999Z,27.50
2023-04-28T23:37:21.122Z,26.25
2023-04-28T23:39:48.230Z,27.52
2023-04-28T23:42:15.280Z,24.65
2023-04-28T23:44:42.298Z,25.55
2023-04-28T23:47:09.398Z,27.02
2023-04-28T23:49:36.485Z,35.30
2023-04-28T23:52:04.040Z,29.38
2023-04-28T23:54:33.905Z,27.35
2023-04-28T23:57:01.018Z,33.20
2023-04-28T23:59:28.872Z,31.63
